Terminal Aerodrome Forecast
Issued by NWS

Home | Current Version | Previous Version | Text Only | Print | Product List | Glossary Off
Versions: 1 2 3 4 5 6 7 8 9 10 11 12 13

000
FTUS45 KGGW 181720
TAFGDV
TAF
KGDV 181720Z 1818/1918 03012G22KT P6SM -SHRA OVC006
      TEMPO 1818/1820 4SM -SHRA OVC005
     FM182000 04014KT P6SM -SHRA OVC010
     FM190400 04008KT P6SM OVC025
     FM190600 04006KT P6SM OVC050
     FM191300 07009KT P6SM BKN120=

USA.gov is the U.S. government's official web portal to all federal, state and local government web resources and services.